Time;durP1;ratioP1;P1;durP2;ratioP2;P2;SDS_P1;SDS_P2;PMS_P1;PMS_P2;Temp;Humidity;BMP_temperature;BMP_pressure;BME280_temperature;BME280_humidity;BME280_pressure;Samples;Min_cycle;Max_cycle;Signal;HPM_P1;HPM_P2
2021/06/03 00:02:05;;;;;;;7.90;5.90;;;;;;;;;;4992623;28;20415;-67
2021/06/03 00:04:31;;;;;;;6.37;5.00;;;;;;;;;;4988131;28;20450;-67
2021/06/03 00:06:57;;;;;;;10.60;5.47;;;;;;;;;;4991273;28;20499;-66
2021/06/03 00:09:24;;;;;;;7.63;5.40;;;;;;;;;;4989099;28;20514;-67
2021/06/03 00:11:50;;;;;;;6.90;5.27;;;;;;;;;;4992002;28;20412;-66
2021/06/03 00:14:16;;;;;;;6.97;4.80;;;;;;;;;;4983463;28;20492;-66
2021/06/03 00:16:42;;;;;;;7.53;4.97;;;;;;;;;;4973953;28;20465;-66
2021/06/03 00:19:10;;;;;;;6.77;5.20;;;;;;;;;;4981693;28;20461;-67
2021/06/03 00:21:36;;;;;;;9.80;4.90;;;;;;;;;;4993342;28;20820;-67
2021/06/03 00:24:03;;;;;;;11.67;6.23;;;;;;;;;;4985667;28;20429;-67
2021/06/03 00:26:29;;;;;;;12.63;5.70;;;;;;;;;;4974026;28;20504;-66
2021/06/03 00:28:55;;;;;;;7.73;4.60;;;;;;;;;;4973559;28;20906;-67
2021/06/03 00:31:22;;;;;;;9.20;4.80;;;;;;;;;;4973843;28;20402;-67
2021/06/03 00:33:48;;;;;;;7.63;5.00;;;;;;;;;;4980120;28;20550;-67
2021/06/03 00:36:14;;;;;;;12.53;5.40;;;;;;;;;;4993280;28;20546;-66
2021/06/03 00:38:40;;;;;;;7.57;5.97;;;;;;;;;;4994277;28;20433;-66
2021/06/03 00:41:07;;;;;;;7.13;4.63;;;;;;;;;;4995967;28;20530;-67
2021/06/03 00:43:33;;;;;;;6.40;4.63;;;;;;;;;;4995815;28;20527;-67
2021/06/03 00:45:59;;;;;;;8.17;5.53;;;;;;;;;;4996594;28;20431;-66
2021/06/03 00:48:25;;;;;;;6.90;5.43;;;;;;;;;;4995539;28;20408;-67
2021/06/03 00:50:53;;;;;;;7.60;5.20;;;;;;;;;;4996633;28;20964;-66
2021/06/03 00:53:19;;;;;;;7.17;5.33;;;;;;;;;;4995784;28;20832;-67
2021/06/03 00:55:46;;;;;;;8.23;5.63;;;;;;;;;;4996224;28;20427;-66
2021/06/03 00:58:12;;;;;;;7.17;5.30;;;;;;;;;;4996585;28;20429;-66
2021/06/03 01:00:39;;;;;;;6.80;5.00;;;;;;;;;;4995522;28;20471;-67
2021/06/03 01:03:05;;;;;;;6.40;4.90;;;;;;;;;;4996533;28;20404;-66
2021/06/03 01:05:42;;;;;;;7.40;5.40;;;;;;;;;;4995088;28;20467;-66
2021/06/03 01:08:13;;;;;;;6.50;5.57;;;;;;;;;;4996452;28;20400;-66
2021/06/03 01:10:42;;;;;;;8.47;5.50;;;;;;;;;;4978222;28;20449;-66
2021/06/03 01:13:21;;;;;;;7.10;5.50;;;;;;;;;;4977830;28;20401;-66
2021/06/03 01:15:51;;;;;;;7.20;5.57;;;;;;;;;;4995024;28;20558;-66
2021/06/03 01:18:17;;;;;;;8.80;5.10;;;;;;;;;;4981533;28;20524;-66
2021/06/03 01:20:45;;;;;;;8.37;5.37;;;;;;;;;;4994400;28;20480;-66
2021/06/03 01:23:20;;;;;;;7.00;5.23;;;;;;;;;;4996019;28;20405;-66
2021/06/03 01:25:46;;;;;;;8.07;5.30;;;;;;;;;;4995164;28;20546;-66
2021/06/03 01:28:13;;;;;;;8.13;5.47;;;;;;;;;;4995977;28;20410;-67
2021/06/03 01:30:40;;;;;;;7.10;5.03;;;;;;;;;;4995160;28;20440;-66
2021/06/03 01:33:08;;;;;;;6.03;5.40;;;;;;;;;;4995762;28;20545;-66
2021/06/03 01:35:36;;;;;;;6.23;4.80;;;;;;;;;;4995032;28;20468;-66
2021/06/03 01:38:06;;;;;;;9.60;5.70;;;;;;;;;;4995695;28;20413;-66
2021/06/03 01:40:33;;;;;;;6.80;5.03;;;;;;;;;;4992670;28;21054;-66
2021/06/03 01:42:59;;;;;;;11.30;5.30;;;;;;;;;;4995868;28;20496;-66
2021/06/03 01:45:26;;;;;;;13.53;5.00;;;;;;;;;;4994519;28;20466;-66
2021/06/03 01:47:52;;;;;;;7.20;5.53;;;;;;;;;;4995523;28;20467;-66
2021/06/03 01:50:19;;;;;;;7.97;5.07;;;;;;;;;;4985470;28;20429;-66
2021/06/03 01:52:45;;;;;;;8.40;4.67;;;;;;;;;;4981874;28;20436;-66
2021/06/03 01:55:12;;;;;;;8.83;4.43;;;;;;;;;;4993397;28;20527;-67
2021/06/03 01:57:38;;;;;;;5.10;4.23;;;;;;;;;;4995265;28;20413;-66
2021/06/03 02:00:09;;;;;;;7.70;5.60;;;;;;;;;;4994281;28;20556;-66
2021/06/03 02:02:35;;;;;;;7.47;3.97;;;;;;;;;;4994312;28;20524;-66
2021/06/03 02:05:01;;;;;;;5.93;4.27;;;;;;;;;;4992571;28;20936;-67
2021/06/03 02:07:27;;;;;;;6.30;4.40;;;;;;;;;;4975653;28;20428;-66
2021/06/03 02:09:54;;;;;;;6.27;4.60;;;;;;;;;;4975916;28;20895;-67
2021/06/03 02:12:20;;;;;;;7.43;4.40;;;;;;;;;;4994835;28;20799;-66
2021/06/03 02:14:47;;;;;;;6.87;4.63;;;;;;;;;;4994952;28;20412;-66
2021/06/03 02:17:17;;;;;;;9.23;5.33;;;;;;;;;;4994255;28;20439;-66
2021/06/03 02:19:43;;;;;;;5.93;4.80;;;;;;;;;;4994902;28;20440;-66
2021/06/03 02:22:10;;;;;;;8.23;6.17;;;;;;;;;;4976131;28;20553;-66
2021/06/03 02:24:36;;;;;;;9.20;5.20;;;;;;;;;;4975741;28;20910;-66
2021/06/03 02:27:03;;;;;;;10.37;7.30;;;;;;;;;;4991337;28;20502;-66
2021/06/03 02:29:29;;;;;;;9.47;5.20;;;;;;;;;;4995033;28;20492;-66
2021/06/03 02:31:55;;;;;;;6.47;5.23;;;;;;;;;;4993758;28;20435;-66
2021/06/03 02:34:21;;;;;;;8.43;4.90;;;;;;;;;;4994527;28;20448;-66
2021/06/03 02:36:47;;;;;;;7.73;5.00;;;;;;;;;;4993407;28;20448;-65
2021/06/03 02:39:13;;;;;;;5.60;5.00;;;;;;;;;;4994462;28;20463;-66
2021/06/03 02:41:39;;;;;;;7.50;4.90;;;;;;;;;;4993794;28;20432;-65
2021/06/03 02:44:06;;;;;;;7.30;5.30;;;;;;;;;;4994281;28;20435;-65
2021/06/03 02:46:32;;;;;;;8.43;5.10;;;;;;;;;;4993517;28;20510;-66
2021/06/03 02:48:58;;;;;;;5.37;4.23;;;;;;;;;;4994548;28;20436;-66
2021/06/03 02:51:24;;;;;;;5.83;4.97;;;;;;;;;;4993292;28;20429;-65
2021/06/03 02:53:51;;;;;;;5.57;4.40;;;;;;;;;;4993006;28;20436;-65
2021/06/03 02:56:18;;;;;;;8.87;4.70;;;;;;;;;;4992960;28;20953;-65
2021/06/03 02:58:44;;;;;;;6.30;4.77;;;;;;;;;;4993151;28;20405;-66
2021/06/03 03:01:10;;;;;;;6.00;4.40;;;;;;;;;;4983794;28;20489;-65
2021/06/03 03:03:36;;;;;;;4.67;4.17;;;;;;;;;;4974626;28;20414;-65
2021/06/03 03:06:04;;;;;;;5.50;4.33;;;;;;;;;;4974595;28;20468;-66
2021/06/03 03:08:30;;;;;;;5.90;4.80;;;;;;;;;;4974586;28;20405;-66
2021/06/03 03:10:57;;;;;;;6.77;4.83;;;;;;;;;;4980027;28;20458;-66
2021/06/03 03:13:23;;;;;;;5.77;4.57;;;;;;;;;;4993960;28;20481;-65
2021/06/03 03:15:50;;;;;;;5.63;3.87;;;;;;;;;;4992840;28;20476;-65
2021/06/03 03:18:16;;;;;;;5.23;4.10;;;;;;;;;;4993999;28;20414;-65
2021/06/03 03:20:43;;;;;;;5.27;4.30;;;;;;;;;;4992802;28;21014;-66
2021/06/03 03:23:10;;;;;;;9.83;5.00;;;;;;;;;;4993986;28;20412;-66
2021/06/03 03:25:38;;;;;;;8.00;4.53;;;;;;;;;;4992609;28;20451;-66
2021/06/03 03:28:04;;;;;;;7.00;4.67;;;;;;;;;;4992706;28;20466;-65
2021/06/03 03:30:32;;;;;;;6.37;4.10;;;;;;;;;;4993114;28;20413;-66
2021/06/03 03:32:58;;;;;;;9.07;5.00;;;;;;;;;;4993767;28;20416;-66
2021/06/03 03:35:24;;;;;;;7.70;4.87;;;;;;;;;;4990946;28;20448;-65
2021/06/03 03:37:50;;;;;;;6.07;4.63;;;;;;;;;;4993693;28;20487;-66
2021/06/03 03:40:18;;;;;;;10.10;4.10;;;;;;;;;;4992469;28;20813;-66
2021/06/03 03:42:44;;;;;;;7.30;5.13;;;;;;;;;;4993298;28;20783;-66
2021/06/03 03:45:11;;;;;;;7.60;4.40;;;;;;;;;;4993835;28;20443;-66
2021/06/03 03:47:37;;;;;;;6.23;4.60;;;;;;;;;;4992705;28;20520;-66
2021/06/03 03:50:07;;;;;;;5.60;4.40;;;;;;;;;;4993455;28;20408;-66
2021/06/03 03:52:33;;;;;;;7.70;4.43;;;;;;;;;;4975917;28;20790;-66
2021/06/03 03:55:00;;;;;;;8.23;4.07;;;;;;;;;;4974185;28;20436;-66
2021/06/03 03:57:26;;;;;;;15.33;4.83;;;;;;;;;;4990061;28;20436;-66
2021/06/03 03:59:53;;;;;;;7.60;5.00;;;;;;;;;;4993433;28;20506;-66
2021/06/03 04:02:19;;;;;;;6.43;4.47;;;;;;;;;;4990924;28;20428;-66
2021/06/03 04:04:45;;;;;;;6.07;4.53;;;;;;;;;;4993020;28;20764;-67
2021/06/03 04:07:11;;;;;;;6.37;4.60;;;;;;;;;;4990505;28;20442;-67
2021/06/03 04:09:37;;;;;;;7.23;4.60;;;;;;;;;;4986134;28;20850;-66
2021/06/03 04:12:03;;;;;;;7.37;4.80;;;;;;;;;;4975244;28;20944;-66
2021/06/03 04:14:29;;;;;;;6.30;5.07;;;;;;;;;;4993007;28;20467;-67
2021/06/03 04:16:55;;;;;;;4.40;3.50;;;;;;;;;;4997202;28;20908;-66
2021/06/03 04:19:21;;;;;;;9.60;5.00;;;;;;;;;;4995736;28;20444;-66
2021/06/03 04:21:47;;;;;;;6.27;4.27;;;;;;;;;;4997105;28;20969;-66
2021/06/03 04:24:13;;;;;;;7.37;4.53;;;;;;;;;;4994648;28;20428;-66
2021/06/03 04:26:39;;;;;;;9.17;5.23;;;;;;;;;;4997159;28;20578;-66
2021/06/03 04:29:05;;;;;;;7.53;5.07;;;;;;;;;;4995976;28;20432;-66
2021/06/03 04:31:31;;;;;;;5.87;4.20;;;;;;;;;;4996930;28;20400;-66
2021/06/03 04:33:58;;;;;;;9.33;5.50;;;;;;;;;;4995938;28;20787;-66
2021/06/03 04:36:24;;;;;;;8.87;5.17;;;;;;;;;;4996639;28;20837;-66
2021/06/03 04:38:50;;;;;;;6.97;4.80;;;;;;;;;;4981402;28;20933;-66
2021/06/03 04:41:16;;;;;;;7.77;6.00;;;;;;;;;;4977479;28;20516;-66
2021/06/03 04:43:43;;;;;;;5.20;4.00;;;;;;;;;;4977504;28;20447;-66
2021/06/03 04:46:10;;;;;;;5.50;4.40;;;;;;;;;;4977204;28;20423;-66
2021/06/03 04:48:36;;;;;;;7.90;4.80;;;;;;;;;;4989240;28;20436;-66
2021/06/03 04:51:02;;;;;;;6.77;5.17;;;;;;;;;;4996831;28;20408;-66
2021/06/03 04:53:28;;;;;;;8.57;5.20;;;;;;;;;;4995768;28;20792;-66
2021/06/03 04:55:54;;;;;;;6.40;4.83;;;;;;;;;;4996497;28;20491;-66
2021/06/03 04:58:20;;;;;;;7.30;4.30;;;;;;;;;;4986111;28;20456;-66
2021/06/03 05:00:46;;;;;;;5.97;4.47;;;;;;;;;;4976867;28;20815;-66
2021/06/03 05:03:14;;;;;;;4.80;3.80;;;;;;;;;;4985267;28;20440;-66
2021/06/03 05:05:40;;;;;;;7.03;5.47;;;;;;;;;;4996252;28;20929;-66
2021/06/03 05:08:07;;;;;;;7.63;3.70;;;;;;;;;;4988404;28;20503;-66
2021/06/03 05:10:33;;;;;;;8.37;4.70;;;;;;;;;;4977184;28;20414;-66
2021/06/03 05:12:59;;;;;;;8.97;4.43;;;;;;;;;;4983023;28;20432;-66
2021/06/03 05:15:26;;;;;;;5.37;3.50;;;;;;;;;;4996143;28;20424;-66
2021/06/03 05:17:54;;;;;;;6.57;4.10;;;;;;;;;;4995070;28;20432;-66
2021/06/03 05:20:20;;;;;;;5.60;4.10;;;;;;;;;;4995966;28;20456;-66
2021/06/03 05:22:46;;;;;;;5.20;3.90;;;;;;;;;;4994915;28;20475;-66
2021/06/03 05:25:14;;;;;;;5.60;4.00;;;;;;;;;;4994289;28;20429;-67
2021/06/03 05:27:41;;;;;;;4.63;4.13;;;;;;;;;;4991043;28;20501;-66
2021/06/03 05:30:07;;;;;;;7.10;4.13;;;;;;;;;;4976663;28;20405;-66
2021/06/03 05:32:34;;;;;;;5.73;4.60;;;;;;;;;;4976307;28;20444;-66
2021/06/03 05:35:01;;;;;;;4.80;3.80;;;;;;;;;;4976354;28;20480;-66
2021/06/03 05:37:27;;;;;;;4.80;3.90;;;;;;;;;;4977044;28;20811;-66
2021/06/03 05:39:53;;;;;;;6.07;4.33;;;;;;;;;;4995677;28;20534;-66
2021/06/03 05:42:20;;;;;;;5.40;3.63;;;;;;;;;;4995736;28;20576;-66
2021/06/03 05:44:46;;;;;;;5.70;4.27;;;;;;;;;;4993696;28;20435;-66
2021/06/03 05:47:12;;;;;;;10.37;3.80;;;;;;;;;;4995529;28;20447;-66
2021/06/03 05:49:38;;;;;;;6.60;3.60;;;;;;;;;;4981130;28;20436;-66
2021/06/03 05:52:05;;;;;;;6.90;4.03;;;;;;;;;;4976068;28;20957;-66
2021/06/03 05:54:31;;;;;;;5.17;4.10;;;;;;;;;;4988430;28;20425;-66
2021/06/03 05:56:57;;;;;;;5.13;3.20;;;;;;;;;;4995780;28;20416;-66
2021/06/03 05:59:24;;;;;;;4.53;3.60;;;;;;;;;;4993819;28;20949;-66
2021/06/03 06:01:50;;;;;;;5.00;4.30;;;;;;;;;;4995641;28;20417;-66
2021/06/03 06:06:45;;;;;;;6.40;3.23;;;;;;;;;;4975771;28;20541;-66
2021/06/03 06:09:11;;;;;;;6.93;2.97;;;;;;;;;;4984730;28;20440;-66
2021/06/03 06:11:39;;;;;;;4.97;3.23;;;;;;;;;;4994592;28;20844;-66
2021/06/03 06:14:07;;;;;;;6.33;4.67;;;;;;;;;;4986868;28;20430;-66
2021/06/03 06:16:33;;;;;;;5.47;3.17;;;;;;;;;;4976597;28;20430;-67
2021/06/03 06:18:59;;;;;;;4.00;3.23;;;;;;;;;;4976305;28;20468;-67
2021/06/03 06:21:25;;;;;;;3.53;2.57;;;;;;;;;;4976130;28;20535;-67
2021/06/03 06:23:51;;;;;;;4.30;3.30;;;;;;;;;;4981083;28;20652;-67
2021/06/03 06:26:17;;;;;;;3.63;2.97;;;;;;;;;;4995028;28;20913;-67
2021/06/03 06:28:44;;;;;;;4.00;2.70;;;;;;;;;;4989729;28;20448;-67
2021/06/03 06:31:10;;;;;;;4.07;2.87;;;;;;;;;;4975386;28;20413;-67
2021/06/03 06:33:37;;;;;;;4.23;2.83;;;;;;;;;;4975410;28;20441;-67
2021/06/03 06:36:04;;;;;;;6.50;2.73;;;;;;;;;;4975530;28;20422;-67
2021/06/03 06:38:31;;;;;;;4.70;3.43;;;;;;;;;;4975523;28;20801;-67
2021/06/03 06:40:57;;;;;;;4.33;2.83;;;;;;;;;;4975181;28;20486;-66
2021/06/03 06:43:23;;;;;;;4.90;3.30;;;;;;;;;;4976216;28;20504;-66
2021/06/03 06:45:49;;;;;;;5.07;3.57;;;;;;;;;;4992667;28;20465;-66
2021/06/03 06:48:16;;;;;;;5.93;2.87;;;;;;;;;;4993543;28;20773;-67
2021/06/03 06:50:43;;;;;;;4.10;3.00;;;;;;;;;;4994387;28;20970;-67
2021/06/03 06:53:09;;;;;;;3.30;3.00;;;;;;;;;;4994324;28;20405;-67
2021/06/03 06:55:36;;;;;;;4.00;2.70;;;;;;;;;;4993345;28;20445;-67
2021/06/03 06:58:02;;;;;;;5.07;2.80;;;;;;;;;;4993065;28;20427;-67
2021/06/03 07:00:30;;;;;;;4.53;3.50;;;;;;;;;;4975956;28;20456;-67
2021/06/03 07:02:57;;;;;;;4.10;3.40;;;;;;;;;;4974767;28;20417;-66
2021/06/03 07:05:23;;;;;;;4.50;3.27;;;;;;;;;;4991016;28;20823;-67
2021/06/03 07:07:50;;;;;;;4.70;3.00;;;;;;;;;;4994232;28;20425;-67
2021/06/03 07:10:16;;;;;;;4.00;2.90;;;;;;;;;;4992949;28;20490;-68
2021/06/03 07:12:43;;;;;;;4.93;2.70;;;;;;;;;;4994117;28;20500;-67
2021/06/03 07:15:11;;;;;;;6.67;2.90;;;;;;;;;;4993310;28;20448;-67
2021/06/03 07:17:37;;;;;;;4.77;3.33;;;;;;;;;;4994034;28;20420;-66
2021/06/03 07:20:09;;;;;;;4.47;3.43;;;;;;;;;;4991555;28;20789;-67
2021/06/03 07:22:36;;;;;;;5.13;3.23;;;;;;;;;;4992623;28;20400;-67
2021/06/03 07:25:02;;;;;;;3.83;3.20;;;;;;;;;;4992673;28;20482;-67
2021/06/03 07:27:28;;;;;;;3.63;3.00;;;;;;;;;;4993735;28;20897;-67
2021/06/03 07:29:59;;;;;;;3.70;2.97;;;;;;;;;;4981357;28;20514;-67
2021/06/03 07:32:25;;;;;;;5.10;2.50;;;;;;;;;;4974247;28;20398;-67
2021/06/03 07:34:51;;;;;;;4.80;3.00;;;;;;;;;;4974677;28;20476;-67
2021/06/03 07:37:17;;;;;;;4.57;2.93;;;;;;;;;;4974718;28;20761;-67
2021/06/03 07:39:43;;;;;;;4.30;3.20;;;;;;;;;;4982553;28;21113;-67
2021/06/03 07:42:11;;;;;;;3.73;3.30;;;;;;;;;;4991407;28;20442;-66
2021/06/03 07:44:38;;;;;;;3.70;2.87;;;;;;;;;;4990665;28;20791;-67
2021/06/03 07:47:04;;;;;;;3.63;2.73;;;;;;;;;;4992822;28;20778;-66
2021/06/03 07:49:30;;;;;;;3.73;2.93;;;;;;;;;;4992082;28;20434;-66
2021/06/03 07:51:57;;;;;;;4.00;2.67;;;;;;;;;;4992542;28;20417;-67
2021/06/03 07:54:23;;;;;;;3.77;3.13;;;;;;;;;;4992888;28;20866;-68
2021/06/03 07:56:49;;;;;;;4.10;3.10;;;;;;;;;;4993510;28;20455;-68
2021/06/03 07:59:15;;;;;;;3.10;2.40;;;;;;;;;;4992132;28;20790;-66
2021/06/03 08:01:41;;;;;;;4.83;3.43;;;;;;;;;;4993554;28;20431;-67
2021/06/03 08:04:07;;;;;;;4.10;3.10;;;;;;;;;;4991839;28;20861;-65
2021/06/03 08:06:34;;;;;;;6.20;4.10;;;;;;;;;;4993243;28;20807;-65
2021/06/03 08:09:00;;;;;;;4.10;3.10;;;;;;;;;;4992379;28;20435;-68
2021/06/03 08:11:26;;;;;;;3.93;3.10;;;;;;;;;;4993360;28;20411;-66
2021/06/03 08:13:52;;;;;;;4.93;3.47;;;;;;;;;;4991723;28;20423;-66
2021/06/03 08:16:20;;;;;;;3.40;3.03;;;;;;;;;;4993161;28;20437;-67
2021/06/03 08:18:46;;;;;;;3.50;3.00;;;;;;;;;;4992360;28;20396;-67
2021/06/03 08:21:12;;;;;;;6.60;4.20;;;;;;;;;;4992688;28;20445;-70
2021/06/03 08:23:38;;;;;;;3.90;3.07;;;;;;;;;;4992016;28;20424;-65
2021/06/03 08:26:04;;;;;;;4.30;3.57;;;;;;;;;;4991505;28;20450;-65
2021/06/03 08:28:30;;;;;;;6.07;3.27;;;;;;;;;;4992589;28;20431;-66
2021/06/03 08:30:58;;;;;;;4.20;2.93;;;;;;;;;;4992594;28;20459;-65
2021/06/03 08:33:25;;;;;;;10.50;4.17;;;;;;;;;;4994082;28;20411;-65
2021/06/03 08:35:51;;;;;;;3.90;3.10;;;;;;;;;;4989797;28;20458;-66
2021/06/03 08:38:17;;;;;;;3.60;2.83;;;;;;;;;;4973800;28;20418;-65
2021/06/03 08:40:48;;;;;;;3.43;2.87;;;;;;;;;;4988570;28;20552;-65
2021/06/03 08:43:14;;;;;;;3.37;3.00;;;;;;;;;;4993463;28;20440;-65
2021/06/03 08:45:42;;;;;;;3.50;2.83;;;;;;;;;;4991762;28;20510;-65
2021/06/03 08:48:08;;;;;;;3.67;2.70;;;;;;;;;;4993490;28;20431;-65
2021/06/03 08:50:36;;;;;;;4.13;3.33;;;;;;;;;;4979308;28;20433;-65
2021/06/03 08:53:02;;;;;;;3.83;3.27;;;;;;;;;;4973895;28;20477;-65
2021/06/03 08:58:15;;;;;;;4.37;3.00;;;;;;;;;;4974307;28;20764;-65
2021/06/03 09:00:42;;;;;;;3.70;2.70;;;;;;;;;;4991154;28;20521;-65
2021/06/03 09:03:09;;;;;;;5.47;3.40;;;;;;;;;;4996697;28;20403;-65
2021/06/03 09:05:36;;;;;;;4.67;3.83;;;;;;;;;;4982291;28;20468;-66
2021/06/03 09:08:15;;;;;;;3.40;2.63;;;;;;;;;;4977206;28;20449;-65
2021/06/03 09:10:42;;;;;;;3.60;2.90;;;;;;;;;;4990633;28;20432;-65
2021/06/03 09:13:09;;;;;;;3.73;3.17;;;;;;;;;;4997037;28;20404;-65
2021/06/03 09:15:35;;;;;;;6.03;3.33;;;;;;;;;;4983222;28;20895;-65
2021/06/03 09:18:02;;;;;;;4.67;3.20;;;;;;;;;;4977106;28;20858;-65
2021/06/03 09:20:28;;;;;;;5.23;3.27;;;;;;;;;;4988163;28;20464;-65
2021/06/03 09:22:55;;;;;;;5.53;2.70;;;;;;;;;;4994648;28;20503;-65
2021/06/03 09:25:38;;;;;;;7.90;3.57;;;;;;;;;;4984965;28;20445;-66
2021/06/03 09:28:16;;;;;;;4.40;3.00;;;;;;;;;;4976819;28;20401;-65
2021/06/03 09:31:02;;;;;;;4.50;3.07;;;;;;;;;;4976676;28;20483;-65
2021/06/03 09:33:55;;;;;;;3.37;2.73;;;;;;;;;;4989268;28;20793;-66
2021/06/03 09:36:36;;;;;;;5.90;3.30;;;;;;;;;;4994514;28;20490;-65
2021/06/03 09:39:21;;;;;;;2.90;2.60;;;;;;;;;;4996029;28;20400;-65
2021/06/03 09:41:47;;;;;;;4.13;3.10;;;;;;;;;;4976735;28;20499;-65
2021/06/03 09:44:16;;;;;;;4.20;3.10;;;;;;;;;;4976947;28;20409;-66
2021/06/03 09:46:43;;;;;;;6.33;4.07;;;;;;;;;;4996047;28;20507;-65
2021/06/03 09:49:14;;;;;;;5.53;3.37;;;;;;;;;;4995233;28;20837;-66
2021/06/03 09:51:44;;;;;;;3.90;3.07;;;;;;;;;;4976452;28;20401;-65
2021/06/03 09:54:11;;;;;;;4.10;3.70;;;;;;;;;;4975889;28;20416;-66
2021/06/03 09:56:49;;;;;;;5.17;4.67;;;;;;;;;;4995181;28;20468;-65
2021/06/03 09:59:19;;;;;;;5.27;3.87;;;;;;;;;;4995175;28;20753;-65
2021/06/03 10:02:05;;;;;;;4.03;3.00;;;;;;;;;;4976196;28;20401;-65
2021/06/03 10:04:48;;;;;;;3.10;2.80;;;;;;;;;;4976251;28;20848;-66
2021/06/03 10:07:16;;;;;;;3.27;2.80;;;;;;;;;;4995628;28;20416;-65
2021/06/03 10:09:58;;;;;;;5.63;3.53;;;;;;;;;;4994341;28;20428;-66
2021/06/03 10:12:27;;;;;;;4.17;3.37;;;;;;;;;;4996239;28;20404;-65
2021/06/03 10:14:54;;;;;;;4.20;3.10;;;;;;;;;;4994992;28;20455;-65
2021/06/03 10:17:21;;;;;;;3.90;3.23;;;;;;;;;;4995533;28;20436;-65
2021/06/03 10:19:48;;;;;;;10.00;3.33;;;;;;;;;;4994952;28;20448;-66
2021/06/03 10:22:16;;;;;;;5.83;3.30;;;;;;;;;;4995372;28;20396;-65
2021/06/03 10:24:53;;;;;;;6.77;3.20;;;;;;;;;;4994537;28;20416;-65
2021/06/03 10:27:20;;;;;;;4.20;2.83;;;;;;;;;;4995108;28;20404;-66
2021/06/03 10:29:50;;;;;;;3.93;2.80;;;;;;;;;;4993302;28;20482;-66
2021/06/03 10:32:17;;;;;;;3.47;2.77;;;;;;;;;;4995333;28;20487;-65
2021/06/03 10:34:44;;;;;;;6.83;3.73;;;;;;;;;;4994052;28;20744;-66
2021/06/03 10:37:11;;;;;;;4.73;3.27;;;;;;;;;;4977172;28;20487;-65
2021/06/03 10:39:38;;;;;;;6.80;4.30;;;;;;;;;;4984616;28;20467;-65
2021/06/03 10:42:05;;;;;;;4.10;3.00;;;;;;;;;;4994726;28;20947;-65
2021/06/03 10:44:31;;;;;;;3.50;2.80;;;;;;;;;;4994750;28;20417;-65
2021/06/03 10:46:57;;;;;;;4.83;2.93;;;;;;;;;;4994867;28;20786;-65
2021/06/03 10:49:23;;;;;;;5.47;2.67;;;;;;;;;;4995182;28;20409;-65
2021/06/03 10:51:50;;;;;;;4.70;3.03;;;;;;;;;;4993948;28;21044;-66
2021/06/03 10:54:35;;;;;;;5.43;3.20;;;;;;;;;;4994616;28;20396;-66
2021/06/03 10:57:01;;;;;;;7.67;3.60;;;;;;;;;;4993290;28;20440;-64
2021/06/03 10:59:31;;;;;;;3.70;2.80;;;;;;;;;;4994881;28;20444;-65
2021/06/03 11:01:59;;;;;;;3.93;2.90;;;;;;;;;;4994091;28;20420;-65
2021/06/03 11:04:29;;;;;;;3.87;3.17;;;;;;;;;;4994872;28;20400;-65
2021/06/03 11:06:55;;;;;;;4.10;2.90;;;;;;;;;;4994716;28;20444;-66
2021/06/03 11:09:44;;;;;;;3.80;3.10;;;;;;;;;;4995189;28;20455;-66
2021/06/03 11:12:15;;;;;;;3.37;2.60;;;;;;;;;;4992181;28;20499;-66
2021/06/03 11:15:00;;;;;;;4.13;2.97;;;;;;;;;;4975882;28;20973;-65
2021/06/03 11:17:44;;;;;;;4.03;3.10;;;;;;;;;;4976875;28;20894;-65
2021/06/03 11:20:11;;;;;;;4.07;3.27;;;;;;;;;;4975965;28;20516;-66
2021/06/03 11:22:37;;;;;;;5.83;3.30;;;;;;;;;;4974622;28;20397;-64
2021/06/03 11:25:05;;;;;;;4.60;3.40;;;;;;;;;;4975736;28;20429;-66
2021/06/03 11:27:36;;;;;;;4.30;3.30;;;;;;;;;;4994379;28;20405;-65
2021/06/03 11:30:04;;;;;;;5.27;3.67;;;;;;;;;;4993775;28;20763;-66
2021/06/03 11:32:35;;;;;;;10.93;3.80;;;;;;;;;;4995992;28;20400;-65
2021/06/03 11:35:03;;;;;;;4.60;3.20;;;;;;;;;;4995052;28;20830;-66
2021/06/03 11:37:35;;;;;;;4.97;3.53;;;;;;;;;;4994646;28;20897;-65
2021/06/03 11:40:08;;;;;;;3.70;3.13;;;;;;;;;;4992805;28;20464;-66
2021/06/03 11:42:35;;;;;;;4.10;3.43;;;;;;;;;;4975636;28;20942;-65
2021/06/03 11:45:08;;;;;;;3.53;2.80;;;;;;;;;;4974806;28;20428;-66
2021/06/03 11:47:37;;;;;;;5.03;3.67;;;;;;;;;;4974857;28;20472;-65
2021/06/03 11:50:04;;;;;;;4.33;3.93;;;;;;;;;;4974519;28;20501;-66
2021/06/03 11:52:30;;;;;;;4.13;3.43;;;;;;;;;;4994270;28;20783;-64
2021/06/03 11:55:00;;;;;;;3.90;2.80;;;;;;;;;;4994447;28;20787;-65
2021/06/03 11:57:28;;;;;;;4.47;3.23;;;;;;;;;;4975044;28;20435;-64
2021/06/03 12:00:00;;;;;;;4.30;2.97;;;;;;;;;;4975208;28;20468;-64
2021/06/03 12:02:36;;;;;;;5.20;3.47;;;;;;;;;;4994256;28;20420;-64
2021/06/03 12:05:12;;;;;;;4.93;3.43;;;;;;;;;;4994348;28;20924;-66
2021/06/03 12:07:42;;;;;;;3.70;3.20;;;;;;;;;;4974758;28;20401;-64
2021/06/03 12:10:09;;;;;;;6.53;3.47;;;;;;;;;;4975051;28;20412;-66
2021/06/03 12:12:35;;;;;;;3.80;3.20;;;;;;;;;;4974715;28;20515;-65
2021/06/03 12:15:02;;;;;;;4.60;3.80;;;;;;;;;;4974866;28;20594;-65
2021/06/03 12:17:28;;;;;;;4.00;3.27;;;;;;;;;;4990992;28;20559;-65
2021/06/03 12:19:56;;;;;;;4.10;3.37;;;;;;;;;;4992282;28;20527;-65
2021/06/03 12:22:25;;;;;;;4.30;3.70;;;;;;;;;;4992803;28;20898;-64
2021/06/03 12:24:53;;;;;;;4.53;4.07;;;;;;;;;;4993947;28;20436;-65
2021/06/03 12:27:19;;;;;;;4.57;4.00;;;;;;;;;;4993104;28;20503;-65
2021/06/03 12:29:46;;;;;;;5.63;4.07;;;;;;;;;;4993977;28;20423;-65
2021/06/03 12:32:13;;;;;;;4.30;3.30;;;;;;;;;;4993172;28;20435;-65
2021/06/03 12:34:39;;;;;;;4.63;3.70;;;;;;;;;;4997740;28;20448;-66
2021/06/03 12:37:18;;;;;;;4.77;3.63;;;;;;;;;;4982629;28;20801;-65
2021/06/03 12:39:44;;;;;;;11.60;4.13;;;;;;;;;;4978268;28;20978;-66
2021/06/03 12:42:10;;;;;;;5.93;3.80;;;;;;;;;;4992759;28;20420;-65
2021/06/03 12:44:36;;;;;;;3.40;3.10;;;;;;;;;;4997726;28;20462;-65
2021/06/03 12:47:07;;;;;;;5.60;3.90;;;;;;;;;;4996808;28;20424;-66
2021/06/03 12:49:34;;;;;;;4.30;3.50;;;;;;;;;;4998023;28;20401;-66
2021/06/03 12:52:03;;;;;;;5.00;4.20;;;;;;;;;;4987879;28;20433;-66
2021/06/03 12:54:35;;;;;;;4.57;4.03;;;;;;;;;;4996063;28;20524;-66
2021/06/03 12:57:02;;;;;;;4.63;4.23;;;;;;;;;;4997767;28;20420;-66
2021/06/03 12:59:30;;;;;;;4.50;3.97;;;;;;;;;;4998699;28;20420;-66
2021/06/03 13:01:57;;;;;;;5.20;4.27;;;;;;;;;;4984992;28;20425;-66
2021/06/03 13:04:24;;;;;;;5.13;4.10;;;;;;;;;;4979156;28;20452;-66
2021/06/03 13:06:50;;;;;;;3.40;3.10;;;;;;;;;;4989570;28;20518;-66
2021/06/03 13:09:16;;;;;;;6.00;3.90;;;;;;;;;;4997572;28;20397;-66
2021/06/03 13:11:44;;;;;;;6.73;3.97;;;;;;;;;;4987086;28;20457;-66
2021/06/03 13:14:19;;;;;;;4.40;4.00;;;;;;;;;;4978630;28;20410;-66
2021/06/03 13:16:47;;;;;;;6.00;4.27;;;;;;;;;;4977017;28;20445;-66
2021/06/03 13:19:20;;;;;;;4.80;3.40;;;;;;;;;;4978353;28;20408;-66
2021/06/03 13:21:53;;;;;;;7.63;3.53;;;;;;;;;;4988415;28;20459;-66
2021/06/03 13:24:23;;;;;;;5.63;3.57;;;;;;;;;;4998055;28;20389;-66
2021/06/03 13:26:50;;;;;;;5.87;3.30;;;;;;;;;;4995699;28;20961;-66
2021/06/03 13:29:17;;;;;;;4.40;2.90;;;;;;;;;;4997764;28;20442;-65
2021/06/03 13:31:43;;;;;;;3.70;2.97;;;;;;;;;;4996313;28;20926;-66
2021/06/03 13:34:24;;;;;;;4.87;3.70;;;;;;;;;;4996964;28;20495;-66
2021/06/03 13:37:07;;;;;;;4.30;3.70;;;;;;;;;;4995850;28;20830;-66
2021/06/03 13:39:38;;;;;;;3.70;2.70;;;;;;;;;;4996777;28;20816;-66
2021/06/03 13:42:15;;;;;;;5.57;4.07;;;;;;;;;;4984387;28;20422;-65
2021/06/03 13:44:55;;;;;;;3.23;2.93;;;;;;;;;;4976140;28;20409;-65
2021/06/03 13:47:54;;;;;;;4.80;2.90;;;;;;;;;;4990927;28;20924;-65
2021/06/03 13:50:34;;;;;;;4.50;3.43;;;;;;;;;;4984588;28;20463;-66
2021/06/03 13:53:02;;;;;;;3.60;3.17;;;;;;;;;;4995912;28;20424;-66
2021/06/03 13:55:31;;;;;;;6.13;3.97;;;;;;;;;;4995965;28;20450;-66
2021/06/03 13:57:57;;;;;;;4.17;3.43;;;;;;;;;;4995061;28;20421;-66
2021/06/03 14:00:38;;;;;;;4.50;3.80;;;;;;;;;;4995931;28;20456;-66
2021/06/03 14:03:05;;;;;;;4.60;2.87;;;;;;;;;;4977659;28;20833;-66
2021/06/03 14:05:32;;;;;;;3.70;3.20;;;;;;;;;;4977575;28;20436;-66
2021/06/03 14:08:05;;;;;;;6.63;4.00;;;;;;;;;;4991580;28;20420;-66
2021/06/03 14:10:31;;;;;;;3.70;3.10;;;;;;;;;;4996854;28;20491;-66
2021/06/03 14:13:05;;;;;;;3.37;3.00;;;;;;;;;;4983552;28;20422;-66
2021/06/03 14:15:39;;;;;;;7.00;3.10;;;;;;;;;;4977515;28;20906;-66
2021/06/03 14:18:05;;;;;;;4.90;2.60;;;;;;;;;;4977926;28;20432;-66
2021/06/03 14:20:32;;;;;;;3.30;2.67;;;;;;;;;;4977392;28;20463;-66
2021/06/03 14:22:59;;;;;;;3.30;2.80;;;;;;;;;;4988720;28;20539;-66
2021/06/03 14:25:35;;;;;;;5.57;3.00;;;;;;;;;;4997112;28;20429;-66
2021/06/03 14:28:10;;;;;;;2.70;2.30;;;;;;;;;;4983502;28;20447;-66
2021/06/03 14:30:37;;;;;;;4.63;2.83;;;;;;;;;;4976045;28;20421;-66
2021/06/03 14:33:06;;;;;;;3.90;2.90;;;;;;;;;;4986881;28;20482;-66
2021/06/03 14:35:47;;;;;;;4.23;2.87;;;;;;;;;;4997440;28;20463;-66
2021/06/03 14:38:21;;;;;;;3.27;2.60;;;;;;;;;;4987022;28;20467;-66
2021/06/03 14:40:50;;;;;;;5.33;2.30;;;;;;;;;;4996433;28;20510;-66
2021/06/03 14:43:20;;;;;;;4.07;2.67;;;;;;;;;;4994682;28;20430;-66
2021/06/03 14:45:47;;;;;;;4.43;2.20;;;;;;;;;;4997307;28;20436;-66
2021/06/03 14:48:15;;;;;;;2.53;2.20;;;;;;;;;;4992573;28;20471;-69
2021/06/03 14:50:42;;;;;;;2.53;2.00;;;;;;;;;;4993803;28;20423;-69
2021/06/03 14:53:09;;;;;;;6.73;3.13;;;;;;;;;;4992523;28;20432;-70
2021/06/03 14:55:36;;;;;;;5.43;2.90;;;;;;;;;;4992914;28;20447;-74